Time;durP1;ratioP1;P1;durP2;ratioP2;P2;SDS_P1;SDS_P2;PMS_P1;PMS_P2;Temp;Humidity;BMP_temperature;BMP_pressure;BME280_temperature;BME280_humidity;BME280_pressure;Samples;Min_cycle;Max_cycle;Signal;HPM_P1;HPM_P2
2023/04/04 03:03:31;;;;;;;6.07;2.55;;;;;;;-0.06;100.00;101661.13;4976717;29;20047;-96
2023/04/04 03:05:59;;;;;;;6.97;3.40;;;;;;;-0.09;100.00;101661.97;4976128;29;20055;-96
2023/04/04 03:08:34;;;;;;;8.02;3.35;;;;;;;-0.01;100.00;101660.31;4958397;29;20035;-96
2023/04/04 03:11:41;;;;;;;14.38;3.35;;;;;;;0.12;100.00;101675.59;4962386;28;20028;-96
2023/04/04 03:14:12;;;;;;;8.43;2.80;;;;;;;-0.05;100.00;101673.84;4942556;29;20050;-96
2023/04/04 03:16:51;;;;;;;5.07;2.72;;;;;;;-0.10;100.00;101660.28;4958991;29;20052;-96
2023/04/04 03:19:24;;;;;;;11.00;3.10;;;;;;;-0.15;99.96;101656.84;4958738;29;20063;-96
2023/04/04 03:21:53;;;;;;;8.80;2.67;;;;;;;-0.09;100.00;101677.19;4957521;29;20032;-95
2023/04/04 03:27:06;;;;;;;5.32;3.10;;;;;;;-0.20;100.00;101678.78;5855953;23;20102;-96
2023/04/04 03:29:31;;;;;;;7.70;3.05;;;;;;;-0.09;100.00;101666.19;4951366;28;20048;-96
2023/04/04 03:31:57;;;;;;;6.22;3.50;;;;;;;-0.01;99.78;101664.53;4960748;28;20093;-96
2023/04/04 03:34:23;;;;;;;6.47;3.33;;;;;;;0.06;100.00;101665.44;4957846;28;20034;-95
2023/04/04 03:36:49;;;;;;;10.32;4.30;;;;;;;-0.08;100.00;101661.09;4940911;28;20043;-96
2023/04/04 03:39:14;;;;;;;6.05;3.45;;;;;;;-0.12;100.00;101664.50;4940806;28;20031;-96
2023/04/04 03:41:40;;;;;;;10.57;3.78;;;;;;;-0.20;100.00;101660.19;4940588;29;20037;-95
2023/04/04 03:44:05;;;;;;;5.78;3.28;;;;;;;-0.21;100.00;101666.97;4940717;29;20027;-96
2023/04/04 03:46:31;;;;;;;10.05;3.63;;;;;;;0.02;100.00;101659.47;4940889;29;20486;-96
2023/04/04 03:48:56;;;;;;;9.90;3.17;;;;;;;0.02;100.00;101684.00;4940550;29;20045;-96
2023/04/04 03:51:23;;;;;;;11.90;4.28;;;;;;;0.25;100.00;101662.16;4940268;29;20030;-96
2023/04/04 03:53:49;;;;;;;6.72;3.20;;;;;;;0.13;99.74;101657.00;4941310;29;20073;-96
2023/04/04 03:56:14;;;;;;;7.75;3.55;;;;;;;0.05;99.87;101649.38;4940305;29;20028;-95
2023/04/04 03:58:40;;;;;;;7.57;3.50;;;;;;;0.21;99.14;101680.75;4940225;28;20541;-96
2023/04/04 04:01:05;;;;;;;11.40;3.75;;;;;;;0.06;99.89;101661.19;4940924;29;20081;-96
2023/04/04 04:03:31;;;;;;;17.70;5.15;;;;;;;0.13;99.47;101667.16;4941702;28;20085;-96
2023/04/04 04:05:57;;;;;;;11.15;4.32;;;;;;;0.07;100.00;101660.34;4941751;28;20019;-96
2023/04/04 04:08:23;;;;;;;11.02;4.78;;;;;;;0.00;100.00;101676.41;4941247;28;20027;-96
2023/04/04 04:10:48;;;;;;;10.38;4.30;;;;;;;-0.11;100.00;101661.09;4941457;28;20034;-95
2023/04/04 04:13:14;;;;;;;12.38;5.30;;;;;;;-0.10;100.00;101655.19;4940917;29;20034;-96
2023/04/04 04:15:40;;;;;;;14.95;4.72;;;;;;;-0.04;100.00;101655.22;4940158;28;20038;-96
2023/04/04 04:18:05;;;;;;;8.10;3.80;;;;;;;0.09;100.00;101660.38;4941671;28;20063;-96
2023/04/04 04:20:31;;;;;;;9.60;4.85;;;;;;;-0.02;100.00;101656.09;4939194;29;20371;-96
2023/04/04 04:22:56;;;;;;;14.73;4.03;;;;;;;-0.08;100.00;101666.19;4940154;29;20023;-95
2023/04/04 04:25:22;;;;;;;10.30;4.30;;;;;;;-0.12;100.00;101650.94;4951185;29;20023;-96
2023/04/04 04:27:55;;;;;;;11.15;4.50;;;;;;;0.01;100.00;101659.50;4950122;29;20031;-96
2023/04/04 04:41:21;;;;;;;11.95;5.10;;;;;;;-0.17;100.00;101647.50;4969311;29;21157;-96
2023/04/04 04:43:54;;;;;;;12.52;4.85;;;;;;;-0.18;100.00;101664.44;4955134;29;20023;-96
2023/04/04 04:46:20;;;;;;;12.45;4.97;;;;;;;-0.17;100.00;101650.06;4957185;29;20441;-96
2023/04/04 04:48:49;;;;;;;8.98;4.50;;;;;;;-0.19;100.00;101642.44;4971895;29;20107;-96
2023/04/04 04:51:15;;;;;;;8.60;4.57;;;;;;;-0.31;100.00;101637.31;4940098;29;20118;-96
2023/04/04 04:53:41;;;;;;;10.10;4.90;;;;;;;-0.18;100.00;101636.53;4939328;29;20031;-96
2023/04/04 04:56:08;;;;;;;11.38;4.57;;;;;;;-0.22;100.00;101642.41;4958493;29;20054;-96
2023/04/04 04:58:37;;;;;;;9.75;4.60;;;;;;;-0.20;100.00;101655.13;4973415;29;20028;-96
2023/04/04 05:01:04;;;;;;;13.77;5.63;;;;;;;-0.49;100.00;101646.47;4940363;29;20064;-96
2023/04/04 05:03:44;;;;;;;23.90;9.45;;;;;;;-0.46;100.00;101643.13;4944357;29;20060;-95
2023/04/04 05:16:34;;;;;;;13.10;5.97;;;;;;;-0.69;100.00;101642.91;5759133;23;21095;-96
2023/04/04 05:19:04;;;;;;;14.45;5.60;;;;;;;-0.69;100.00;101660.66;4975901;28;20507;-96
2023/04/04 05:21:30;;;;;;;14.70;5.57;;;;;;;-0.79;100.00;101646.22;4974332;28;20393;-96
2023/04/04 05:23:57;;;;;;;8.93;4.90;;;;;;;-0.76;100.00;101646.25;4974472;28;20030;-96
2023/04/04 05:26:29;;;;;;;11.10;4.47;;;;;;;-0.81;100.00;101647.88;4974558;28;20034;-96
2023/04/04 05:29:21;;;;;;;12.85;5.35;;;;;;;-0.89;100.00;101651.19;4962962;29;20027;-96
2023/04/04 05:39:54;;;;;;;9.55;4.78;;;;;;;-0.88;100.00;101647.84;5072632;23;20045;-96
2023/04/04 05:42:22;;;;;;;13.10;4.47;;;;;;;-0.88;100.00;101650.38;5532339;23;20043;-96
2023/04/04 05:44:50;;;;;;;10.77;5.43;;;;;;;-0.60;100.00;101677.66;5001680;28;20023;-96
2023/04/04 05:47:23;;;;;;;11.70;4.47;;;;;;;-0.73;100.00;101664.00;5249337;23;20149;-96
2023/04/04 05:49:49;;;;;;;13.38;5.05;;;;;;;-0.82;100.00;101656.34;4983763;28;20042;-96
2023/04/04 05:52:15;;;;;;;9.57;5.03;;;;;;;-0.83;100.00;101674.91;4983778;28;20026;-96
2023/04/04 05:54:41;;;;;;;14.93;5.85;;;;;;;-0.76;100.00;101686.78;4980066;28;20015;-95
2023/04/04 05:57:07;;;;;;;10.93;5.43;;;;;;;-0.79;100.00;101661.44;4981897;28;20015;-96
2023/04/04 06:04:39;;;;;;;13.32;5.78;;;;;;;-0.74;100.00;101653.03;5001791;28;20031;-96
2023/04/04 06:07:05;;;;;;;17.73;6.05;;;;;;;-0.40;100.00;101665.13;5005922;28;20002;-96
2023/04/04 06:09:32;;;;;;;12.02;5.53;;;;;;;-0.44;100.00;101644.81;5054654;23;20050;-96
2023/04/04 06:11:57;;;;;;;10.75;5.40;;;;;;;-0.42;100.00;101647.34;4984858;28;20082;-96
2023/04/04 06:14:24;;;;;;;16.63;5.50;;;;;;;-0.47;100.00;101646.47;4980886;28;20042;-96
2023/04/04 06:16:51;;;;;;;11.32;5.78;;;;;;;-0.30;100.00;101662.66;4978508;23;20022;-96
2023/04/04 06:19:17;;;;;;;10.18;5.18;;;;;;;-0.45;100.00;101658.31;4976009;28;20030;-96
2023/04/04 06:21:42;;;;;;;9.45;5.53;;;;;;;-0.47;100.00;101654.09;4963363;29;20039;-96
2023/04/04 06:24:08;;;;;;;16.60;5.40;;;;;;;-0.49;100.00;101661.69;4964687;28;20079;-96
2023/04/04 06:26:33;;;;;;;14.40;6.65;;;;;;;-0.36;100.00;101666.88;4965027;28;20015;-96
2023/04/04 06:28:59;;;;;;;12.10;5.85;;;;;;;-0.36;100.00;101665.16;4963377;28;20063;-96
2023/04/04 06:31:26;;;;;;;13.50;4.97;;;;;;;-0.40;100.00;101670.19;4945737;29;20023;-96
2023/04/04 06:33:51;;;;;;;13.68;6.32;;;;;;;-0.28;100.00;101660.16;4945892;29;20023;-95
2023/04/04 06:36:17;;;;;;;14.07;6.10;;;;;;;0.03;100.00;101656.13;4945636;29;20032;-96
2023/04/04 06:38:42;;;;;;;11.82;5.95;;;;;;;0.30;100.00;101659.63;4945758;29;20023;-96
2023/04/04 06:41:08;;;;;;;17.73;6.25;;;;;;;0.32;100.00;101666.41;4945640;29;20022;-96
2023/04/04 06:43:33;;;;;;;14.02;5.63;;;;;;;0.35;100.00;101656.25;4941386;29;20040;-96
2023/04/04 06:45:58;;;;;;;14.75;6.20;;;;;;;0.55;100.00;101658.03;4942040;29;20011;-96
2023/04/04 06:56:10;;;;;;;12.60;5.90;;;;;;;1.05;96.71;101657.31;5152608;23;20050;-96
2023/04/04 06:58:42;;;;;;;16.02;6.32;;;;;;;1.21;96.42;101648.84;4994552;23;20034;-96
2023/04/04 07:01:07;;;;;;;11.45;6.35;;;;;;;1.63;94.19;101667.50;5110881;23;20054;-96
2023/04/04 07:03:36;;;;;;;13.88;6.20;;;;;;;1.76;90.62;101652.25;4971220;28;20022;-95
2023/04/04 07:06:13;;;;;;;10.90;5.75;;;;;;;1.86;90.25;101656.47;4979336;28;20003;-96
2023/04/04 07:08:47;;;;;;;11.68;5.88;;;;;;;2.17;88.02;101659.78;4991970;28;20030;-96
2023/04/04 07:11:13;;;;;;;12.63;6.22;;;;;;;2.37;87.24;101657.16;4984224;28;20035;-96
2023/04/04 07:13:38;;;;;;;13.20;6.70;;;;;;;2.37;87.05;101644.41;4979992;28;20054;-96
2023/04/04 07:16:04;;;;;;;15.63;6.00;;;;;;;2.50;84.92;101643.50;4963641;28;20054;-95
2023/04/04 07:24:02;;;;;;;12.25;5.55;;;;;;;3.52;77.69;101653.03;5363970;23;20048;-96
2023/04/04 07:26:28;;;;;;;9.45;5.32;;;;;;;3.69;76.42;101643.53;4961366;28;20037;-95
2023/04/04 07:28:53;;;;;;;14.35;5.50;;;;;;;3.95;75.19;101653.47;4963040;28;20067;-95
2023/04/04 07:31:19;;;;;;;17.35;5.82;;;;;;;3.86;74.42;101661.22;4964418;28;20027;-96
2023/04/04 07:33:45;;;;;;;14.27;5.97;;;;;;;4.31;72.11;101659.03;4976251;28;20034;-96
2023/04/04 07:36:11;;;;;;;16.10;5.90;;;;;;;5.16;67.19;101653.59;4993391;28;20026;-96
2023/04/04 07:38:39;;;;;;;14.38;5.35;;;;;;;6.16;65.29;101672.41;5266139;23;20047;-96
2023/04/04 07:44:19;;;;;;;17.02;7.05;;;;;;;8.28;57.96;101655.38;4972465;28;20102;-96
2023/04/04 07:47:01;;;;;;;15.65;5.35;;;;;;;9.24;54.50;101673.13;4932003;29;20134;-96
2023/04/04 07:57:45;;;;;;;;;;;;;;;11.75;47.38;101683.63;5627949;23;20067;-96
2023/04/04 08:02:54;;;;;;;10.75;4.63;;;;;;;13.38;43.40;101671.06;5011538;23;20057;-96
2023/04/04 08:10:52;;;;;;;13.48;5.22;;;;;;;15.17;39.32;101673.69;5018453;23;20055;-96
2023/04/04 08:14:02;;;;;;;7.57;4.88;;;;;;;17.15;36.52;101669.47;5216768;23;20278;-96
2023/04/04 08:25:26;;;;;;;11.93;4.35;;;;;;;19.98;32.66;101665.88;5098045;23;20070;-96
2023/04/04 08:28:04;;;;;;;11.70;4.45;;;;;;;20.83;31.28;101675.75;4952641;29;20055;-96
2023/04/04 08:43:53;;;;;;;16.55;5.28;;;;;;;20.78;30.76;101716.47;4965878;28;20054;-96
2023/04/04 08:49:09;;;;;;;22.45;4.75;;;;;;;22.00;29.58;101710.72;5827829;23;20057;-97
2023/04/04 08:51:37;;;;;;;9.18;4.55;;;;;;;22.40;27.98;101712.53;4967827;28;20062;-96
2023/04/04 08:54:06;;;;;;;7.82;4.82;;;;;;;23.06;28.63;101720.69;4966647;28;20035;-96
2023/04/04 08:56:37;;;;;;;8.50;4.20;;;;;;;22.82;28.17;101707.06;4966780;28;20031;-96
2023/04/04 08:59:04;;;;;;;10.45;5.00;;;;;;;22.64;28.88;101720.09;4969276;28;20023;-96
2023/04/04 09:01:32;;;;;;;9.57;4.22;;;;;;;23.29;27.28;101718.63;4952646;28;20497;-96
2023/04/04 09:04:03;;;;;;;10.32;4.05;;;;;;;24.85;26.63;101725.13;4968081;28;20046;-96
2023/04/04 09:06:29;;;;;;;8.60;3.60;;;;;;;24.24;26.27;101708.94;4972507;28;20023;-96
2023/04/04 09:08:58;;;;;;;6.85;3.90;;;;;;;23.84;27.96;101704.78;4972982;28;20033;-96
2023/04/04 09:11:28;;;;;;;11.68;4.15;;;;;;;24.54;27.56;101702.56;4971136;28;20034;-96
2023/04/04 09:14:05;;;;;;;12.57;4.68;;;;;;;22.64;27.20;101699.03;4977844;28;20022;-96
2023/04/04 09:16:32;;;;;;;8.38;3.83;;;;;;;24.19;26.47;101705.06;4958866;28;20111;-96
2023/04/04 09:18:57;;;;;;;9.98;3.88;;;;;;;22.29;27.64;101695.09;4969193;28;20023;-96
2023/04/04 09:21:23;;;;;;;11.05;3.85;;;;;;;23.73;26.63;101705.00;4965117;28;20132;-96
2023/04/04 09:23:58;;;;;;;15.18;4.50;;;;;;;23.28;25.28;101702.94;4969252;28;20031;-96
2023/04/04 09:26:24;;;;;;;11.98;3.53;;;;;;;24.14;25.42;101705.50;4970330;28;20041;-96
2023/04/04 09:28:54;;;;;;;9.38;3.65;;;;;;;23.97;26.27;101703.63;4971056;28;20031;-96
2023/04/04 09:31:20;;;;;;;6.65;4.05;;;;;;;23.87;26.26;101709.81;4969717;28;20489;-96
2023/04/04 09:33:48;;;;;;;7.40;3.53;;;;;;;23.40;26.56;101703.63;4970448;28;20037;-96
2023/04/04 09:36:17;;;;;;;10.27;3.85;;;;;;;24.25;27.14;101712.41;4971436;28;20435;-96
2023/04/04 09:38:47;;;;;;;7.57;3.88;;;;;;;25.13;25.73;101691.53;4970821;28;20026;-96
2023/04/04 09:41:15;;;;;;;9.30;3.60;;;;;;;25.86;23.86;101693.88;4972696;28;20089;-96
2023/04/04 09:43:44;;;;;;;7.57;3.85;;;;;;;23.78;26.14;101699.28;4975324;28;20453;-96
2023/04/04 09:46:10;;;;;;;6.15;2.83;;;;;;;25.05;25.14;101688.84;4973304;28;20046;-96
2023/04/04 09:48:36;;;;;;;8.43;3.55;;;;;;;25.24;24.28;101698.41;4973333;28;20022;-96
2023/04/04 09:51:11;;;;;;;10.77;3.95;;;;;;;24.34;25.23;101691.25;4971245;28;20393;-96
2023/04/04 09:53:41;;;;;;;8.55;4.13;;;;;;;24.60;26.56;101693.19;4974645;28;20031;-96
2023/04/04 09:56:07;;;;;;;7.43;3.70;;;;;;;25.49;24.86;101694.97;4971694;28;20099;-96
2023/04/04 09:58:40;;;;;;;8.95;3.92;;;;;;;24.07;25.70;101693.91;4975002;28;20061;-96
2023/04/04 10:01:11;;;;;;;7.80;2.88;;;;;;;22.30;27.49;101699.38;4974244;28;20062;-96
2023/04/04 10:03:40;;;;;;;9.18;3.42;;;;;;;24.77;25.66;101696.81;4973413;28;20027;-96
2023/04/04 10:06:08;;;;;;;8.57;3.28;;;;;;;24.19;24.89;101697.16;4984125;28;20023;-96
2023/04/04 10:08:38;;;;;;;10.02;3.50;;;;;;;24.16;26.30;101693.00;4980231;28;20027;-95
2023/04/04 10:11:05;;;;;;;6.05;3.67;;;;;;;24.80;27.42;101696.56;4980989;28;20023;-96
2023/04/04 10:13:35;;;;;;;8.00;3.60;;;;;;;24.68;25.80;101690.66;4979752;28;20034;-96
2023/04/04 10:16:03;;;;;;;7.03;3.83;;;;;;;25.40;24.93;101695.91;4979887;28;20011;-95
2023/04/04 10:18:31;;;;;;;9.13;3.28;;;;;;;25.82;23.83;101685.41;4980388;28;20034;-95
2023/04/04 10:21:02;;;;;;;7.38;2.90;;;;;;;25.74;23.32;101689.81;4975319;28;20034;-96
2023/04/04 10:23:28;;;;;;;5.45;2.60;;;;;;;25.58;24.11;101699.34;4978191;28;20023;-95
2023/04/04 10:26:03;;;;;;;8.07;3.75;;;;;;;23.24;24.99;101702.41;4976456;28;20038;-96
2023/04/04 10:28:30;;;;;;;9.95;3.88;;;;;;;22.62;26.24;101695.69;4977436;28;20039;-96
2023/04/04 10:31:20;;;;;;;6.07;3.03;;;;;;;23.62;25.36;101699.84;4976708;28;20027;-95
2023/04/04 10:33:49;;;;;;;8.15;3.83;;;;;;;21.72;26.17;101691.19;4979735;28;20039;-94
2023/04/04 10:36:21;;;;;;;6.07;3.40;;;;;;;22.92;26.22;101691.28;4977055;28;20027;-94
2023/04/04 10:39:10;;;;;;;10.88;4.57;;;;;;;24.05;24.91;101694.03;4977037;28;20034;-94
2023/04/04 10:41:36;;;;;;;7.25;3.42;;;;;;;23.46;25.77;101696.00;4974091;28;20047;-94
2023/04/04 10:44:29;;;;;;;14.38;3.92;;;;;;;23.31;26.89;101694.75;4977543;28;20019;-95
2023/04/04 10:47:03;;;;;;;6.78;3.67;;;;;;;24.45;24.05;101697.28;4977304;28;20033;-96
2023/04/04 10:49:30;;;;;;;6.38;3.38;;;;;;;23.52;25.04;101693.78;4978416;28;20031;-95
2023/04/04 10:51:56;;;;;;;9.85;4.38;;;;;;;23.68;25.72;101688.75;4977924;28;20077;-95
2023/04/04 10:54:26;;;;;;;9.75;4.60;;;;;;;24.10;25.65;101683.06;4978382;28;20029;-96
2023/04/04 10:56:54;;;;;;;8.07;3.15;;;;;;;23.84;24.65;101694.25;4975945;28;20129;-96
2023/04/04 10:59:25;;;;;;;7.72;4.03;;;;;;;24.11;24.54;101676.78;4976514;28;20015;-95
2023/04/04 11:01:57;;;;;;;5.93;3.58;;;;;;;22.47;26.54;101687.38;4979967;28;20073;-96
2023/04/04 11:04:33;;;;;;;6.13;3.53;;;;;;;23.77;27.22;101682.63;4979249;28;20026;-96
2023/04/04 11:07:05;;;;;;;10.98;3.58;;;;;;;23.52;27.47;101689.31;4980091;28;20023;-96
2023/04/04 11:09:50;;;;;;;11.88;4.38;;;;;;;24.31;26.55;101686.28;4979224;28;20033;-96
2023/04/04 11:12:22;;;;;;;7.82;3.60;;;;;;;24.26;27.36;101677.97;4981846;28;20026;-96
2023/04/04 11:15:09;;;;;;;10.45;3.38;;;;;;;24.48;25.73;101682.03;4981983;28;20034;-96
2023/04/04 11:17:50;;;;;;;8.82;4.10;;;;;;;25.04;25.21;101681.88;4982551;28;20027;-95
2023/04/04 11:20:22;;;;;;;7.22;3.85;;;;;;;24.84;25.91;101679.41;4982632;28;20018;-96
2023/04/04 11:22:49;;;;;;;10.88;3.58;;;;;;;25.32;26.74;101680.81;4982213;28;20031;-94
2023/04/04 11:25:31;;;;;;;7.75;3.30;;;;;;;25.62;25.31;101687.44;4980463;28;20026;-96
2023/04/04 11:28:07;;;;;;;8.10;3.60;;;;;;;25.43;25.86;101687.66;4981644;28;20014;-96
2023/04/04 11:30:46;;;;;;;8.95;3.72;;;;;;;25.78;25.42;101675.31;4979215;28;20051;-94
2023/04/04 11:33:12;;;;;;;8.65;3.47;;;;;;;25.45;24.66;101679.56;4979917;28;20022;-95
2023/04/04 11:35:49;;;;;;;8.15;3.63;;;;;;;25.06;24.92;101667.53;4980673;28;20011;-96
2023/04/04 11:38:21;;;;;;;11.90;3.58;;;;;;;25.85;25.11;101668.41;4979947;28;20065;-95
2023/04/04 11:40:55;;;;;;;8.48;3.65;;;;;;;25.79;25.64;101661.91;4977107;28;20030;-95
2023/04/04 11:43:21;;;;;;;5.72;3.35;;;;;;;25.86;26.09;101667.44;4977376;28;20041;-95
2023/04/04 11:45:50;;;;;;;7.70;3.63;;;;;;;25.60;23.71;101659.50;4979456;28;20030;-95
2023/04/04 11:48:17;;;;;;;5.97;3.30;;;;;;;25.28;25.11;101662.78;4979561;28;20034;-95
2023/04/04 11:50:48;;;;;;;6.75;3.65;;;;;;;25.71;25.10;101664.53;4978606;28;20166;-96
2023/04/04 11:53:16;;;;;;;8.57;3.47;;;;;;;26.04;24.99;101654.97;4973975;28;20022;-93
2023/04/04 11:55:46;;;;;;;5.03;3.60;;;;;;;26.26;24.37;101656.19;4978345;28;20035;-94
2023/04/04 11:58:19;;;;;;;6.72;3.15;;;;;;;25.78;24.05;101648.88;4975167;28;20023;-95
2023/04/04 12:00:55;;;;;;;8.20;4.85;;;;;;;23.65;26.76;101652.09;4982710;28;20037;-96
2023/04/04 12:03:21;;;;;;;7.43;3.30;;;;;;;24.90;26.95;101648.94;4981880;28;20015;-95
2023/04/04 12:05:48;;;;;;;10.63;4.10;;;;;;;25.15;26.23;101650.78;4978780;28;20019;-95
2023/04/04 12:08:23;;;;;;;7.45;3.65;;;;;;;25.47;25.50;101645.88;4980964;28;20010;-96
2023/04/04 12:10:51;;;;;;;11.38;3.67;;;;;;;25.85;25.80;101641.94;4979926;28;20027;-96
2023/04/04 12:13:26;;;;;;;4.95;3.00;;;;;;;25.30;27.54;101637.84;4980884;28;20036;-96
2023/04/04 12:15:55;;;;;;;5.65;3.90;;;;;;;25.19;24.90;101632.84;4979888;28;20031;-96
2023/04/04 12:18:25;;;;;;;8.35;3.92;;;;;;;24.72;26.14;101620.72;4978447;28;20125;-96
2023/04/04 12:20:53;;;;;;;6.75;3.65;;;;;;;25.32;26.16;101617.38;4978378;28;20054;-95
2023/04/04 12:23:21;;;;;;;6.70;4.07;;;;;;;25.37;26.56;101625.66;4974045;28;20039;-96
2023/04/04 12:25:52;;;;;;;9.15;3.63;;;;;;;25.68;26.89;101611.97;4978143;28;20030;-95
2023/04/04 12:28:18;;;;;;;6.90;3.40;;;;;;;26.62;23.51;101605.59;4976761;28;20025;-95
2023/04/04 12:30:53;;;;;;;6.88;3.58;;;;;;;25.90;24.57;101610.59;4979402;28;20034;-96
2023/04/04 12:33:20;;;;;;;7.13;3.53;;;;;;;25.13;24.85;101610.47;4982146;28;20074;-96
2023/04/04 12:35:52;;;;;;;7.47;3.28;;;;;;;24.08;26.47;101600.59;4981468;28;20015;-94
2023/04/04 12:38:22;;;;;;;6.63;3.80;;;;;;;24.11;27.70;101606.41;4971649;28;20077;-96
2023/04/04 12:40:50;;;;;;;6.80;3.53;;;;;;;24.27;26.71;101589.91;4948551;28;20035;-96
2023/04/04 12:43:19;;;;;;;7.00;3.13;;;;;;;24.89;25.18;101597.91;4964446;28;20037;-96
2023/04/04 12:45:45;;;;;;;8.57;3.95;;;;;;;24.81;26.39;101586.47;4967596;28;20042;-96
2023/04/04 12:48:16;;;;;;;7.07;3.65;;;;;;;25.26;24.97;101585.47;4980573;28;20366;-96
2023/04/04 12:50:58;;;;;;;7.50;3.47;;;;;;;24.52;26.59;101583.09;4967862;28;20031;-96
2023/04/04 12:53:31;;;;;;;6.28;3.13;;;;;;;25.35;26.98;101568.66;4967290;28;20064;-96
2023/04/04 12:56:48;;;;;;;7.30;3.70;;;;;;;25.55;27.03;101567.44;4993273;28;20042;-96
2023/04/04 12:59:39;;;;;;;5.65;3.45;;;;;;;25.60;24.90;101575.75;5308325;23;20055;-96
2023/04/04 13:02:12;;;;;;;9.60;3.75;;;;;;;24.57;26.39;101564.16;4971190;28;20031;-96
2023/04/04 13:04:38;;;;;;;7.43;3.90;;;;;;;24.47;30.00;101576.63;4966380;28;20031;-96
2023/04/04 13:07:18;;;;;;;5.82;3.70;;;;;;;24.80;26.05;101571.59;4964493;28;20018;-96
2023/04/04 13:09:55;;;;;;;5.72;3.38;;;;;;;24.65;25.40;101555.47;4963443;28;20299;-96
2023/04/04 13:12:21;;;;;;;9.75;3.40;;;;;;;24.46;26.43;101562.59;4961812;28;20035;-96
2023/04/04 13:15:05;;;;;;;9.57;3.47;;;;;;;21.50;26.58;101555.59;4962988;28;20023;-96
2023/04/04 13:17:44;;;;;;;6.07;3.45;;;;;;;22.47;27.47;101566.34;4960445;28;20081;-96
2023/04/04 13:20:12;;;;;;;5.45;3.30;;;;;;;22.99;28.27;101544.97;4960788;28;20376;-96
2023/04/04 13:22:38;;;;;;;9.23;3.90;;;;;;;21.80;27.65;101557.38;4959410;28;20034;-95
2023/04/04 13:25:05;;;;;;;9.45;3.78;;;;;;;22.90;27.54;101549.28;4958883;28;20031;-96
2023/04/04 13:27:30;;;;;;;7.10;3.55;;;;;;;23.60;26.51;101544.47;4958068;28;20027;-95
2023/04/04 13:29:56;;;;;;;6.68;3.63;;;;;;;22.80;28.48;101540.53;4958587;28;20031;-95
2023/04/04 13:32:21;;;;;;;7.07;3.90;;;;;;;22.50;31.13;101538.91;4958378;28;20065;-95
2023/04/04 13:34:47;;;;;;;7.53;4.05;;;;;;;20.65;30.13;101536.41;4958850;28;20050;-95
2023/04/04 13:37:12;;;;;;;11.50;4.70;;;;;;;21.05;30.33;101538.34;4957642;28;20497;-95
2023/04/04 13:39:38;;;;;;;5.78;3.97;;;;;;;20.79;31.21;101537.88;4957917;28;20484;-96
2023/04/04 13:42:03;;;;;;;8.32;4.20;;;;;;;20.13;30.63;101527.53;4957669;28;20166;-95
2023/04/04 13:44:28;;;;;;;6.85;3.58;;;;;;;19.54;32.64;101528.66;4958316;28;20495;-96
2023/04/04 13:46:54;;;;;;;9.90;4.82;;;;;;;18.17;33.50;101522.38;4959115;28;20385;-96
2023/04/04 13:49:20;;;;;;;8.68;4.00;;;;;;;18.06;33.29;101511.84;4957660;28;20027;-96
2023/04/04 13:51:46;;;;;;;5.80;3.80;;;;;;;18.04;34.12;101511.13;4957846;28;20354;-95
2023/04/04 13:54:11;;;;;;;14.48;4.32;;;;;;;17.29;35.58;101515.44;4957839;28;20023;-96
2023/04/04 13:56:37;;;;;;;10.15;4.25;;;;;;;17.10;34.98;101508.03;4974854;28;20366;-96
2023/04/04 13:59:02;;;;;;;7.75;4.30;;;;;;;16.51;35.64;101509.34;4957828;28;20054;-95
2023/04/04 14:01:28;;;;;;;7.40;4.28;;;;;;;16.52;35.92;101509.25;4959918;28;20033;-95
2023/04/04 14:03:54;;;;;;;12.40;4.13;;;;;;;16.20;36.42;101503.53;4961526;28;20058;-96
2023/04/04 14:06:20;;;;;;;8.90;4.40;;;;;;;15.92;37.24;101505.28;4961206;28;20030;-96
2023/04/04 14:08:46;;;;;;;7.55;4.45;;;;;;;16.03;37.38;101502.00;4961118;28;20027;-95
2023/04/04 14:11:12;;;;;;;7.22;3.97;;;;;;;15.86;38.71;101491.81;4961127;28;20027;-96
2023/04/04 14:13:38;;;;;;;9.50;5.00;;;;;;;15.95;38.07;101489.47;4960823;28;20045;-95
2023/04/04 14:16:04;;;;;;;8.00;4.28;;;;;;;15.66;36.98;101490.44;4960837;28;20535;-95
2023/04/04 14:18:29;;;;;;;9.52;4.13;;;;;;;15.48;37.32;101484.59;4960894;28;20038;-95
2023/04/04 14:20:55;;;;;;;7.72;3.65;;;;;;;14.97;38.30;101483.28;4960510;28;20023;-95
2023/04/04 14:23:21;;;;;;;9.18;4.20;;;;;;;15.10;38.18;101479.94;4960572;28;20400;-96
2023/04/04 14:25:48;;;;;;;10.30;3.90;;;;;;;14.99;39.50;101473.59;4961222;28;20027;-94
2023/04/04 14:28:14;;;;;;;10.68;4.15;;;;;;;14.72;40.84;101464.84;4961490;28;20093;-95
2023/04/04 14:30:39;;;;;;;14.23;4.10;;;;;;;14.76;40.39;101469.78;4961131;28;20031;-95
2023/04/04 14:33:04;;;;;;;8.95;3.60;;;;;;;14.72;39.79;101472.63;4960896;28;20065;-95
2023/04/04 14:35:30;;;;;;;8.15;4.13;;;;;;;14.67;38.47;101474.66;4961697;28;20411;-95
2023/04/04 14:37:55;;;;;;;7.63;3.40;;;;;;;14.62;38.77;101458.53;4960613;28;20457;-95
2023/04/04 14:40:21;;;;;;;10.93;3.63;;;;;;;14.48;38.26;101467.91;4961054;28;20085;-95
2023/04/04 14:42:46;;;;;;;9.25;4.10;;;;;;;14.16;38.94;101455.91;4961250;28;20030;-95
2023/04/04 14:45:13;;;;;;;8.93;4.18;;;;;;;14.13;38.36;101457.75;4961593;28;20022;-95
2023/04/04 14:47:38;;;;;;;9.10;4.10;;;;;;;14.14;39.74;101453.41;4961794;28;20022;-95
2023/04/04 14:50:08;;;;;;;10.85;4.38;;;;;;;13.76;39.38;101442.56;4961879;28;20023;-95
2023/04/04 14:52:33;;;;;;;11.40;4.43;;;;;;;13.80;39.25;101439.72;4961239;28;20480;-95
2023/04/04 14:54:58;;;;;;;10.15;5.35;;;;;;;13.60;39.73;101432.16;4961235;28;20078;-95
2023/04/04 14:57:24;;;;;;;9.98;4.88;;;;;;;13.38;40.70;101427.31;4961016;28;20465;-96
2023/04/04 14:59:50;;;;;;;11.30;4.20;;;;;;;13.58;41.86;101434.88;4961131;28;20090;-96
2023/04/04 15:02:15;;;;;;;7.85;4.20;;;;;;;13.61;41.70;101432.09;4961263;28;20049;-95
2023/04/04 15:04:41;;;;;;;6.90;4.00;;;;;;;13.66;38.51;101437.88;4960669;28;20086;-96
2023/04/04 15:07:07;;;;;;;10.32;4.63;;;;;;;13.28;40.61;101432.97;4961046;28;20026;-95
2023/04/04 15:09:32;;;;;;;11.10;4.68;;;;;;;13.26;41.84;101439.97;4961299;28;20054;-95
2023/04/04 15:11:58;;;;;;;11.50;4.28;;;;;;;13.31;41.10;101436.31;4960862;28;20089;-95
2023/04/04 15:14:24;;;;;;;9.13;4.78;;;;;;;13.28;42.17;101443.34;4961125;28;20404;-95
2023/04/04 15:16:49;;;;;;;12.73;4.15;;;;;;;13.31;42.69;101428.53;4961037;28;20037;-95
2023/04/04 15:19:15;;;;;;;10.23;4.90;;;;;;;13.07;42.07;101428.91;4960394;28;20075;-94
2023/04/04 15:21:40;;;;;;;8.35;4.15;;;;;;;13.20;44.24;101424.75;4960117;28;20396;-94
2023/04/04 15:24:06;;;;;;;11.68;4.70;;;;;;;13.23;44.16;101421.16;4960339;28;20038;-95
2023/04/04 15:26:31;;;;;;;14.70;5.97;;;;;;;13.18;43.83;101420.56;4960168;28;20034;-95
2023/04/04 15:28:57;;;;;;;7.85;4.22;;;;;;;13.36;43.75;101432.56;4960189;28;20027;-95
2023/04/04 15:31:25;;;;;;;10.38;4.88;;;;;;;13.26;44.22;101429.63;4960156;28;20029;-94
2023/04/04 15:33:50;;;;;;;10.85;4.93;;;;;;;13.04;44.78;101416.91;4960022;28;20131;-94
2023/04/04 15:36:16;;;;;;;16.30;4.38;;;;;;;13.16;44.90;101427.56;4959526;28;20557;-95
2023/04/04 15:38:42;;;;;;;6.07;4.50;;;;;;;12.92;42.28;101411.53;4959424;28;20109;-94
2023/04/04 15:41:08;;;;;;;8.90;4.60;;;;;;;12.80;43.33;101421.63;4959389;28;20034;-95
2023/04/04 15:43:35;;;;;;;13.15;5.13;;;;;;;12.82;43.44;101422.38;4958810;28;20031;-95
2023/04/04 15:46:01;;;;;;;8.05;4.53;;;;;;;12.72;43.80;101426.34;4960216;28;20046;-95
2023/04/04 15:48:26;;;;;;;7.95;4.80;;;;;;;12.53;44.11;101425.59;4959107;28;20560;-95
2023/04/04 15:50:58;;;;;;;8.75;4.88;;;;;;;12.59;46.18;101426.13;4959500;28;20022;-95
2023/04/04 15:53:23;;;;;;;12.43;4.80;;;;;;;12.56;46.63;101415.94;4959136;28;20026;-94
2023/04/04 15:55:49;;;;;;;9.95;4.43;;;;;;;12.69;45.53;101416.16;4959156;28;20022;-96
2023/04/04 15:58:15;;;;;;;8.02;4.85;;;;;;;12.55;45.43;101403.88;4959708;28;20030;-94
2023/04/04 16:00:44;;;;;;;8.40;4.93;;;;;;;12.60;45.73;101408.84;4959482;28;20481;-95
2023/04/04 16:03:10;;;;;;;7.55;4.75;;;;;;;12.73;45.52;101407.31;4958426;28;20065;-96
2023/04/04 16:05:35;;;;;;;9.90;4.88;;;;;;;12.69;45.69;101398.00;4959320;28;20019;-95
2023/04/04 16:08:01;;;;;;;11.23;5.38;;;;;;;12.74;43.70;101411.56;4958817;28;20030;-95